Tver, Russia
Current Conditions -  °F | °C
As of 1:30 AM on Saturday 29 Nov 2014 (Local Time) from UUEE Reporting Station
Broken Clouds Broken Clouds  
Wind Chill:   Ceiling: 10000
Heat Index: 14°   Visibility: 4mi
Dew Point: 12°   Wind: 9mph
Humidity: 93%   Direction: 80°E
Pressure: 30.59"   Gusts: NA
Location:  56.86°N, 35.89°E
Report Text: UUEE 282230Z 08004MPS 7000 BKN100 M10/M11 Q1036 0741015757410157 NOSIG
Loading
Personal Weather Stations






























Interactive Weather Map New forecast layout! Learn more

10-Day Weather Forecast

Advertisements
Track Severe Weather on mobile